createdAt,value
2023-05-01T00:01:48.489Z,55.84
2023-05-01T00:04:50.946Z,56.08
2023-05-01T00:07:53.484Z,55.82
2023-05-01T00:10:56.050Z,55.91
2023-05-01T00:13:58.377Z,55.68
2023-05-01T00:17:01.151Z,55.86
2023-05-01T00:20:05.406Z,55.90
2023-05-01T00:23:08.721Z,55.98
2023-05-01T00:26:11.085Z,55.94
2023-05-01T00:29:17.015Z,55.95
2023-05-01T00:32:19.739Z,56.27
2023-05-01T00:35:22.705Z,56.14
2023-05-01T00:38:25.071Z,55.88
2023-05-01T00:41:27.422Z,56.11
2023-05-01T00:44:29.771Z,55.96
2023-05-01T00:47:33.105Z,56.53
2023-05-01T00:50:35.582Z,56.26
2023-05-01T00:53:37.964Z,55.99
2023-05-01T00:56:40.342Z,56.19
2023-05-01T00:59:42.802Z,56.47
2023-05-01T01:02:46.881Z,56.39
2023-05-01T01:06:14.978Z,56.12
2023-05-01T01:09:41.392Z,56.30
2023-05-01T01:12:55.027Z,56.44
2023-05-01T01:16:05.964Z,56.36
2023-05-01T01:19:20.782Z,56.42
2023-05-01T01:22:24.417Z,56.29
2023-05-01T01:25:45.713Z,56.72
2023-05-01T01:29:04.109Z,56.32
2023-05-01T01:32:36.364Z,56.36
2023-05-01T01:35:42.524Z,56.45
2023-05-01T01:38:48.188Z,56.56
2023-05-01T01:41:52.491Z,56.73
2023-05-01T01:44:59.432Z,56.70
2023-05-01T01:48:03.470Z,56.55
2023-05-01T01:51:09.357Z,56.44
2023-05-01T01:54:13.320Z,56.62
2023-05-01T01:57:17.909Z,56.69
2023-05-01T02:00:22.976Z,56.83
2023-05-01T02:03:26.849Z,56.49
2023-05-01T02:06:31.750Z,56.85
2023-05-01T02:09:34.861Z,56.75
2023-05-01T02:12:37.780Z,57.00
2023-05-01T02:15:41.046Z,56.77
2023-05-01T02:18:43.807Z,56.77
2023-05-01T02:21:46.861Z,56.94
2023-05-01T02:24:49.698Z,56.74
2023-05-01T02:28:02.080Z,56.80
2023-05-01T02:31:04.427Z,56.96
2023-05-01T02:34:06.817Z,56.77
2023-05-01T02:37:11.626Z,57.11
2023-05-01T02:40:15.965Z,56.86
2023-05-01T02:43:20.646Z,56.53
2023-05-01T02:46:24.695Z,56.67
2023-05-01T02:49:27.709Z,57.04
2023-05-01T02:52:30.643Z,56.76
2023-05-01T02:55:50.946Z,56.89
2023-05-01T02:58:53.760Z,57.02
2023-05-01T03:01:56.152Z,57.00
2023-05-01T03:04:58.643Z,57.14
2023-05-01T03:08:01.085Z,57.19
2023-05-01T03:11:08.003Z,57.23
2023-05-01T03:14:11.319Z,56.71
2023-05-01T03:17:14.205Z,56.91
2023-05-01T03:20:16.681Z,56.79
2023-05-01T03:23:19.236Z,56.89
2023-05-01T03:26:21.615Z,57.10
2023-05-01T03:29:26.024Z,57.17
2023-05-01T03:32:29.583Z,56.89
2023-05-01T03:35:32.616Z,57.26
2023-05-01T03:38:35.043Z,57.37
2023-05-01T03:41:46.364Z,56.95
2023-05-01T03:45:04.441Z,56.96
2023-05-01T03:48:06.861Z,56.91
2023-05-01T03:51:09.460Z,56.93
2023-05-01T03:54:12.615Z,56.95
2023-05-01T03:57:29.781Z,56.78
2023-05-01T04:00:32.975Z,57.01
2023-05-01T04:03:35.639Z,57.05
2023-05-01T04:06:38.111Z,57.25
2023-05-01T04:09:41.876Z,57.02
2023-05-01T04:12:44.581Z,56.09
2023-05-01T04:15:47.083Z,55.94
2023-05-01T04:18:49.530Z,54.79
2023-05-01T04:21:52.229Z,54.34
2023-05-01T04:24:55.029Z,53.41
2023-05-01T04:27:57.818Z,52.63
2023-05-01T04:31:03.078Z,51.77
2023-05-01T04:34:05.555Z,51.07
2023-05-01T04:37:09.169Z,50.46
2023-05-01T04:40:12.226Z,49.83
2023-05-01T04:43:15.543Z,48.76
2023-05-01T04:46:18.399Z,48.12
2023-05-01T04:49:22.367Z,47.43
2023-05-01T04:52:24.849Z,46.76
2023-05-01T04:55:32.202Z,46.29
2023-05-01T04:58:42.258Z,46.05
2023-05-01T05:01:48.820Z,45.45
2023-05-01T05:04:53.888Z,45.62
2023-05-01T05:07:56.617Z,45.83
2023-05-01T05:11:01.947Z,45.75
2023-05-01T05:14:22.351Z,46.01
2023-05-01T05:17:25.765Z,45.79
2023-05-01T05:20:28.319Z,46.12
2023-05-01T05:23:31.228Z,46.24
2023-05-01T05:26:33.593Z,46.42
2023-05-01T05:29:38.398Z,46.54
2023-05-01T05:32:40.781Z,46.58
2023-05-01T05:35:43.772Z,46.95
2023-05-01T05:38:46.657Z,47.09
2023-05-01T05:41:53.983Z,46.92
2023-05-01T05:44:56.648Z,47.07
2023-05-01T05:47:59.099Z,47.53
2023-05-01T05:51:02.967Z,47.48
2023-05-01T05:54:05.345Z,47.35
2023-05-01T05:57:10.655Z,47.43
2023-05-01T06:00:19.043Z,47.49
2023-05-01T06:03:25.192Z,47.28
2023-05-01T06:06:31.511Z,47.21
2023-05-01T06:09:34.169Z,47.04
2023-05-01T06:12:37.869Z,47.00
2023-05-01T06:15:43.962Z,46.47
2023-05-01T06:18:47.363Z,46.47
2023-05-01T06:21:49.699Z,46.09
2023-05-01T06:24:52.144Z,45.82
2023-05-01T06:27:54.866Z,45.52
2023-05-01T06:30:59.196Z,45.21
2023-05-01T06:34:02.409Z,44.89
2023-05-01T06:37:17.914Z,44.57
2023-05-01T06:40:20.366Z,44.34
2023-05-01T06:43:22.963Z,43.96
2023-05-01T06:46:28.040Z,43.50
2023-05-01T06:49:30.462Z,43.19
2023-05-01T06:52:32.887Z,42.79
2023-05-01T06:55:35.923Z,42.60
2023-05-01T06:58:38.378Z,42.40
2023-05-01T07:01:40.924Z,41.92
2023-05-01T07:04:44.495Z,41.74
2023-05-01T07:07:57.975Z,41.19
2023-05-01T07:11:03.491Z,41.11
2023-05-01T07:14:06.092Z,40.66
2023-05-01T07:17:09.312Z,40.46
2023-05-01T07:20:12.717Z,40.15
2023-05-01T07:23:15.075Z,40.33
2023-05-01T07:26:17.500Z,40.13
2023-05-01T07:29:19.850Z,40.02
2023-05-01T07:32:22.255Z,39.53
2023-05-01T07:35:24.632Z,39.62
2023-05-01T07:38:27.125Z,39.70
2023-05-01T07:41:29.456Z,39.48
2023-05-01T07:44:31.802Z,39.74
2023-05-01T07:47:34.134Z,39.82
2023-05-01T07:50:36.564Z,39.75
2023-05-01T07:53:40.786Z,39.98
2023-05-01T07:56:43.139Z,40.24
2023-05-01T07:59:45.524Z,40.15
2023-05-01T08:02:48.470Z,40.30
2023-05-01T08:05:51.191Z,40.24
2023-05-01T08:08:53.522Z,40.44
2023-05-01T08:11:55.824Z,40.82
2023-05-01T08:14:58.172Z,40.91
2023-05-01T08:18:00.732Z,41.52
2023-05-01T08:21:03.609Z,41.78
2023-05-01T08:24:09.363Z,42.26
2023-05-01T08:27:11.774Z,42.63
2023-05-01T08:30:14.168Z,42.80
2023-05-01T08:33:16.624Z,43.15
2023-05-01T08:36:21.176Z,43.30
2023-05-01T08:39:23.724Z,43.52
2023-05-01T08:42:26.443Z,43.54
2023-05-01T08:45:31.150Z,43.90
2023-05-01T08:48:35.650Z,43.92
2023-05-01T08:51:38.591Z,44.17
2023-05-01T08:54:45.318Z,44.29
2023-05-01T08:57:48.621Z,44.36
2023-05-01T09:00:51.207Z,44.68
2023-05-01T09:03:53.962Z,44.99
2023-05-01T09:06:56.574Z,44.74
2023-05-01T09:09:59.485Z,44.89
2023-05-01T09:13:02.420Z,45.14
2023-05-01T09:16:05.689Z,45.21
2023-05-01T09:19:08.609Z,45.21
2023-05-01T09:22:11.269Z,45.47
2023-05-01T09:25:13.623Z,45.47
2023-05-01T09:28:16.028Z,45.90
2023-05-01T09:31:27.735Z,45.84
2023-05-01T09:34:30.136Z,45.98
2023-05-01T09:37:33.726Z,45.85
2023-05-01T09:40:36.084Z,45.97
2023-05-01T09:43:39.069Z,46.13
2023-05-01T09:46:43.978Z,46.15
2023-05-01T09:49:48.405Z,46.34
2023-05-01T09:52:52.887Z,46.48
2023-05-01T09:56:02.281Z,46.61
2023-05-01T09:59:17.940Z,46.70
2023-05-01T10:02:29.827Z,46.79
2023-05-01T10:05:44.038Z,46.81
2023-05-01T10:08:50.742Z,46.87
2023-05-01T10:11:56.182Z,46.81
2023-05-01T10:15:00.480Z,47.04
2023-05-01T10:18:04.968Z,46.99
2023-05-01T10:21:07.733Z,47.11
2023-05-01T10:24:11.228Z,47.21
2023-05-01T10:27:13.862Z,47.16
2023-05-01T10:30:17.686Z,47.26
2023-05-01T10:33:20.022Z,47.45
2023-05-01T10:36:28.737Z,47.47
2023-05-01T10:39:36.066Z,47.39
2023-05-01T10:43:17.022Z,47.67
2023-05-01T10:46:19.421Z,47.58
2023-05-01T10:49:22.153Z,47.70
2023-05-01T10:52:24.520Z,47.74
2023-05-01T10:55:36.742Z,47.91
2023-05-01T10:58:39.030Z,47.73
2023-05-01T11:01:44.976Z,48.04
2023-05-01T11:04:50.865Z,48.10
2023-05-01T11:08:33.867Z,47.83
2023-05-01T11:11:36.244Z,47.96
2023-05-01T11:14:54.348Z,48.08
2023-05-01T11:17:58.034Z,48.27
2023-05-01T11:21:02.230Z,48.09
2023-05-01T11:24:08.103Z,48.26
2023-05-01T11:27:13.702Z,48.23
2023-05-01T11:30:16.356Z,48.40
2023-05-01T11:33:23.230Z,48.35
2023-05-01T11:36:27.293Z,48.37
2023-05-01T11:39:29.690Z,48.28
2023-05-01T11:42:32.062Z,48.57
2023-05-01T11:45:36.205Z,48.35
2023-05-01T11:48:39.386Z,48.56
2023-05-01T11:51:41.747Z,48.43
2023-05-01T11:54:50.172Z,48.34
2023-05-01T11:57:53.339Z,48.74
2023-05-01T12:00:55.784Z,48.65
2023-05-01T12:03:58.483Z,48.54
2023-05-01T12:07:00.930Z,48.43
2023-05-01T12:10:04.632Z,48.52
2023-05-01T12:13:08.322Z,48.59
2023-05-01T12:16:11.600Z,48.50
2023-05-01T12:19:15.628Z,48.41
2023-05-01T12:22:18.247Z,48.75
2023-05-01T12:25:20.892Z,48.76
2023-05-01T12:28:23.230Z,48.48
2023-05-01T12:31:26.444Z,48.85
2023-05-01T12:34:33.705Z,48.65
2023-05-01T12:37:36.268Z,48.83
2023-05-01T12:40:40.062Z,48.74
2023-05-01T12:43:44.300Z,48.89
2023-05-01T12:46:54.145Z,49.00
2023-05-01T12:50:03.222Z,49.08
2023-05-01T12:53:07.218Z,48.95
2023-05-01T12:56:09.588Z,48.94
2023-05-01T12:59:26.939Z,48.89
2023-05-01T13:02:33.564Z,48.89
2023-05-01T13:05:36.062Z,49.16
2023-05-01T13:08:40.246Z,48.95
2023-05-01T13:11:42.574Z,48.96
2023-05-01T13:14:45.110Z,48.91
2023-05-01T13:17:47.768Z,48.95
2023-05-01T13:20:50.172Z,48.97
2023-05-01T13:24:00.368Z,48.99
2023-05-01T13:27:05.025Z,49.12
2023-05-01T13:30:08.207Z,49.52
2023-05-01T13:33:11.260Z,49.24
2023-05-01T13:36:25.134Z,49.15
2023-05-01T13:39:29.379Z,49.02
2023-05-01T13:42:31.791Z,49.11
2023-05-01T13:45:34.132Z,49.41
2023-05-01T13:48:36.477Z,49.29
2023-05-01T13:51:43.502Z,49.31
2023-05-01T13:54:47.631Z,49.14
2023-05-01T13:57:50.104Z,49.18
2023-05-01T14:00:52.706Z,49.29
2023-05-01T14:04:00.511Z,49.05
2023-05-01T14:07:02.988Z,49.23
2023-05-01T14:10:09.079Z,49.33
2023-05-01T14:13:11.505Z,49.34
2023-05-01T14:16:27.463Z,49.03
2023-05-01T14:19:29.872Z,49.52
2023-05-01T14:22:45.794Z,49.31
2023-05-01T14:25:49.299Z,49.32
2023-05-01T14:28:51.806Z,49.46
2023-05-01T14:31:55.559Z,49.25
2023-05-01T14:34:59.819Z,49.10
2023-05-01T14:38:13.799Z,48.92
2023-05-01T14:41:18.696Z,48.61
2023-05-01T14:44:23.609Z,48.34
2023-05-01T14:47:26.336Z,47.84
2023-05-01T14:50:28.767Z,47.17
2023-05-01T14:53:34.197Z,46.66
2023-05-01T14:56:36.568Z,46.23
2023-05-01T14:59:39.021Z,45.90
2023-05-01T15:02:41.515Z,45.81
2023-05-01T15:05:46.245Z,45.35
2023-05-01T15:08:48.692Z,45.42
2023-05-01T15:11:51.117Z,45.20
2023-05-01T15:14:53.507Z,45.23
2023-05-01T15:17:55.869Z,45.46
2023-05-01T15:20:58.275Z,45.61
2023-05-01T15:24:00.604Z,45.65
2023-05-01T15:27:03.272Z,45.69
2023-05-01T15:30:06.320Z,45.60
2023-05-01T15:33:08.730Z,45.57
2023-05-01T15:36:11.200Z,45.88
2023-05-01T15:39:13.526Z,45.71
2023-05-01T15:42:15.909Z,45.97
2023-05-01T15:45:18.295Z,46.04
2023-05-01T15:48:20.899Z,46.02
2023-05-01T15:51:23.243Z,46.16
2023-05-01T15:54:27.756Z,45.99
2023-05-01T15:57:31.297Z,46.50
2023-05-01T16:00:35.890Z,46.34
2023-05-01T16:03:40.750Z,46.34
2023-05-01T16:06:43.426Z,46.54
2023-05-01T16:09:45.883Z,46.53
2023-05-01T16:12:50.621Z,46.53
2023-05-01T16:15:53.057Z,46.71
2023-05-01T16:18:57.253Z,46.86
2023-05-01T16:22:05.960Z,46.67
2023-05-01T16:25:09.649Z,46.90
2023-05-01T16:28:12.770Z,46.97
2023-05-01T16:31:26.647Z,47.09
2023-05-01T16:34:29.738Z,47.25
2023-05-01T16:37:34.070Z,47.29
2023-05-01T16:40:37.197Z,47.17
2023-05-01T16:43:39.569Z,47.26
2023-05-01T16:46:43.585Z,47.35
2023-05-01T16:49:46.790Z,47.48
2023-05-01T16:52:50.023Z,47.54
2023-05-01T16:55:53.330Z,47.55
2023-05-01T16:58:56.406Z,47.49
2023-05-01T17:01:58.822Z,47.79
2023-05-01T17:05:02.545Z,47.56
2023-05-01T17:08:05.034Z,47.66
2023-05-01T17:11:07.565Z,47.91
2023-05-01T17:14:09.986Z,48.01
2023-05-01T17:17:12.575Z,47.91
2023-05-01T17:20:14.992Z,48.13
2023-05-01T17:23:17.378Z,47.99
2023-05-01T17:26:19.734Z,48.12
2023-05-01T17:29:22.066Z,48.22
2023-05-01T17:32:35.903Z,47.99
2023-05-01T17:35:39.538Z,48.46
2023-05-01T17:38:41.990Z,48.41
2023-05-01T17:41:44.408Z,48.59
2023-05-01T17:44:46.861Z,48.38
2023-05-01T17:47:49.279Z,48.24
2023-05-01T17:50:52.006Z,48.42
2023-05-01T17:53:54.448Z,48.63
2023-05-01T17:56:56.979Z,48.79
2023-05-01T17:59:59.857Z,48.83
2023-05-01T18:03:02.683Z,49.02
2023-05-01T18:06:05.228Z,49.14
2023-05-01T18:09:08.911Z,49.00
2023-05-01T18:12:11.411Z,49.23
2023-05-01T18:15:15.867Z,49.45
2023-05-01T18:18:22.367Z,49.40
2023-05-01T18:21:25.450Z,49.51
2023-05-01T18:24:27.809Z,49.54
2023-05-01T18:27:30.132Z,49.61
2023-05-01T18:30:33.153Z,49.41
2023-05-01T18:33:35.798Z,49.73
2023-05-01T18:36:39.582Z,49.89
2023-05-01T18:39:42.155Z,49.82
2023-05-01T18:42:44.520Z,50.02
2023-05-01T18:45:47.034Z,50.11
2023-05-01T18:48:49.565Z,49.78
2023-05-01T18:51:55.800Z,50.21
2023-05-01T18:54:58.390Z,50.11
2023-05-01T18:58:02.056Z,50.39
2023-05-01T19:01:04.614Z,50.40
2023-05-01T19:04:07.453Z,50.40
2023-05-01T19:07:10.148Z,50.41
2023-05-01T19:10:12.780Z,50.63
2023-05-01T19:13:15.330Z,50.43
2023-05-01T19:16:17.765Z,50.78
2023-05-01T19:19:20.364Z,51.07
2023-05-01T19:22:22.916Z,51.12
2023-05-01T19:25:25.574Z,51.15
2023-05-01T19:28:28.106Z,51.08
2023-05-01T19:31:30.760Z,51.13
2023-05-01T19:34:33.340Z,51.35
2023-05-01T19:37:36.482Z,51.49
2023-05-01T19:40:48.291Z,51.50
2023-05-01T19:43:51.027Z,51.72
2023-05-01T19:46:53.598Z,51.68
2023-05-01T19:49:56.089Z,51.89
2023-05-01T19:53:01.601Z,51.75
2023-05-01T19:56:03.963Z,51.99
2023-05-01T19:59:06.465Z,51.99
2023-05-01T20:02:09.028Z,51.97
2023-05-01T20:05:13.101Z,52.25
2023-05-01T20:08:15.618Z,52.56
2023-05-01T20:11:18.004Z,52.18
2023-05-01T20:14:20.398Z,52.57
2023-05-01T20:17:22.950Z,52.32
2023-05-01T20:20:25.409Z,52.58
2023-05-01T20:23:27.765Z,52.70
2023-05-01T20:26:30.151Z,52.87
2023-05-01T20:29:32.602Z,52.77
2023-05-01T20:32:35.159Z,52.60
2023-05-01T20:35:38.156Z,53.17
2023-05-01T20:38:43.104Z,53.34
2023-05-01T20:41:45.472Z,53.34
2023-05-01T20:44:47.825Z,53.53
2023-05-01T20:47:50.190Z,53.40
2023-05-01T20:50:53.817Z,53.78
2023-05-01T20:53:56.254Z,53.48
2023-05-01T20:56:58.965Z,53.89
2023-05-01T21:00:01.952Z,53.74
2023-05-01T21:03:04.970Z,53.93
2023-05-01T21:06:07.516Z,54.04
2023-05-01T21:09:13.336Z,54.05
2023-05-01T21:12:15.752Z,53.99
2023-05-01T21:15:18.166Z,54.05
2023-05-01T21:18:21.193Z,53.76
2023-05-01T21:21:25.028Z,54.11
2023-05-01T21:24:27.437Z,54.34
2023-05-01T21:27:29.789Z,54.27
2023-05-01T21:30:34.325Z,54.04
2023-05-01T21:33:37.640Z,54.45
2023-05-01T21:36:45.115Z,54.23
2023-05-01T21:39:47.504Z,54.38
2023-05-01T21:42:50.017Z,54.38
2023-05-01T21:45:52.735Z,54.28
2023-05-01T21:48:55.184Z,54.58
2023-05-01T21:52:01.581Z,54.60
2023-05-01T21:55:04.770Z,54.42
2023-05-01T21:58:07.194Z,54.48
2023-05-01T22:01:13.016Z,54.32
2023-05-01T22:04:18.256Z,54.60
2023-05-01T22:07:20.622Z,54.51
2023-05-01T22:10:22.929Z,54.84
2023-05-01T22:13:32.028Z,54.58
2023-05-01T22:16:34.601Z,54.67
2023-05-01T22:19:37.939Z,54.72
2023-05-01T22:22:41.325Z,54.90
2023-05-01T22:25:44.176Z,54.61
2023-05-01T22:28:46.577Z,54.59
2023-05-01T22:31:48.994Z,54.80
2023-05-01T22:34:51.350Z,54.65
2023-05-01T22:37:53.706Z,54.97
2023-05-01T22:40:56.051Z,54.75
2023-05-01T22:43:58.345Z,54.89
2023-05-01T22:47:00.775Z,55.05
2023-05-01T22:50:03.347Z,55.00
2023-05-01T22:53:05.846Z,54.80
2023-05-01T22:56:08.236Z,54.99
2023-05-01T22:59:10.694Z,54.69
2023-05-01T23:02:16.374Z,54.75
2023-05-01T23:05:18.776Z,54.89
2023-05-01T23:08:21.136Z,54.73
2023-05-01T23:11:31.032Z,55.32
2023-05-01T23:14:34.232Z,55.14
2023-05-01T23:17:36.667Z,54.89
2023-05-01T23:20:40.589Z,54.93
2023-05-01T23:23:43.537Z,54.77
2023-05-01T23:26:46.244Z,54.87
2023-05-01T23:29:56.556Z,54.91
2023-05-01T23:32:59.798Z,54.89
2023-05-01T23:36:02.162Z,55.23
2023-05-01T23:39:04.499Z,55.24
2023-05-01T23:42:07.120Z,55.12
2023-05-01T23:45:09.741Z,55.14
2023-05-01T23:48:12.768Z,55.31
2023-05-01T23:51:15.262Z,55.00
2023-05-01T23:54:17.597Z,55.49
2023-05-01T23:57:19.961Z,55.35
